sensor_id;sensor_type;location;lat;lon;timestamp;P1;durP1;ratioP1;P2;durP2;ratioP2
15261;SDS011;7733;51.554;13.590;2023-06-26T00:01:26;6.47;;;6.17;;
15261;SDS011;7733;51.554;13.590;2023-06-26T00:03:56;6.20;;;5.90;;
15261;SDS011;7733;51.554;13.590;2023-06-26T00:06:24;6.97;;;6.57;;
15261;SDS011;7733;51.554;13.590;2023-06-26T00:08:50;6.43;;;6.03;;
15261;SDS011;7733;51.554;13.590;2023-06-26T00:11:21;6.90;;;6.40;;
15261;SDS011;7733;51.554;13.590;2023-06-26T00:13:47;6.40;;;6.00;;
15261;SDS011;7733;51.554;13.590;2023-06-26T00:16:13;5.97;;;5.57;;
15261;SDS011;7733;51.554;13.590;2023-06-26T00:18:39;5.97;;;5.67;;
15261;SDS011;7733;51.554;13.590;2023-06-26T00:21:05;5.93;;;5.60;;
15261;SDS011;7733;51.554;13.590;2023-06-26T00:23:30;6.57;;;6.17;;
15261;SDS011;7733;51.554;13.590;2023-06-26T00:25:58;6.80;;;6.50;;
15261;SDS011;7733;51.554;13.590;2023-06-26T00:28:23;7.00;;;6.60;;
15261;SDS011;7733;51.554;13.590;2023-06-26T00:30:49;6.80;;;6.40;;
15261;SDS011;7733;51.554;13.590;2023-06-26T00:33:15;5.20;;;5.00;;
15261;SDS011;7733;51.554;13.590;2023-06-26T00:35:40;6.07;;;5.73;;
15261;SDS011;7733;51.554;13.590;2023-06-26T00:38:06;5.30;;;5.03;;
15261;SDS011;7733;51.554;13.590;2023-06-26T00:40:32;5.83;;;5.53;;
15261;SDS011;7733;51.554;13.590;2023-06-26T00:42:57;5.47;;;5.17;;
15261;SDS011;7733;51.554;13.590;2023-06-26T00:45:23;6.60;;;6.20;;
15261;SDS011;7733;51.554;13.590;2023-06-26T00:47:49;6.30;;;5.90;;
15261;SDS011;7733;51.554;13.590;2023-06-26T00:50:15;5.60;;;5.20;;
15261;SDS011;7733;51.554;13.590;2023-06-26T00:52:42;5.30;;;5.10;;
15261;SDS011;7733;51.554;13.590;2023-06-26T00:55:08;5.77;;;5.47;;
15261;SDS011;7733;51.554;13.590;2023-06-26T00:57:34;6.17;;;5.77;;
15261;SDS011;7733;51.554;13.590;2023-06-26T01:00:00;5.83;;;5.50;;
15261;SDS011;7733;51.554;13.590;2023-06-26T01:02:29;5.63;;;5.33;;
15261;SDS011;7733;51.554;13.590;2023-06-26T01:04:58;5.73;;;5.40;;
15261;SDS011;7733;51.554;13.590;2023-06-26T01:07:31;5.90;;;5.50;;
15261;SDS011;7733;51.554;13.590;2023-06-26T01:10:01;5.90;;;5.50;;
15261;SDS011;7733;51.554;13.590;2023-06-26T01:12:30;6.13;;;5.73;;
15261;SDS011;7733;51.554;13.590;2023-06-26T01:14:57;6.20;;;5.83;;
15261;SDS011;7733;51.554;13.590;2023-06-26T01:17:25;6.87;;;6.30;;
15261;SDS011;7733;51.554;13.590;2023-06-26T01:20:01;6.80;;;6.40;;
15261;SDS011;7733;51.554;13.590;2023-06-26T01:22:54;6.47;;;6.17;;
15261;SDS011;7733;51.554;13.590;2023-06-26T01:28:44;6.00;;;5.70;;
15261;SDS011;7733;51.554;13.590;2023-06-26T01:31:11;5.77;;;5.53;;
15261;SDS011;7733;51.554;13.590;2023-06-26T01:33:39;5.40;;;5.10;;
15261;SDS011;7733;51.554;13.590;2023-06-26T01:36:07;6.13;;;5.73;;
15261;SDS011;7733;51.554;13.590;2023-06-26T01:38:33;6.53;;;5.87;;
15261;SDS011;7733;51.554;13.590;2023-06-26T01:40:59;5.53;;;5.23;;
15261;SDS011;7733;51.554;13.590;2023-06-26T01:52:03;6.53;;;6.10;;
15261;SDS011;7733;51.554;13.590;2023-06-26T01:54:37;7.00;;;6.60;;
15261;SDS011;7733;51.554;13.590;2023-06-26T01:57:21;6.03;;;5.73;;
15261;SDS011;7733;51.554;13.590;2023-06-26T01:59:53;5.80;;;5.50;;
15261;SDS011;7733;51.554;13.590;2023-06-26T02:02:22;4.57;;;4.30;;
15261;SDS011;7733;51.554;13.590;2023-06-26T02:04:49;4.57;;;4.27;;
15261;SDS011;7733;51.554;13.590;2023-06-26T02:07:15;3.60;;;3.50;;
15261;SDS011;7733;51.554;13.590;2023-06-26T02:09:42;4.20;;;4.00;;
15261;SDS011;7733;51.554;13.590;2023-06-26T02:12:08;4.83;;;4.53;;
15261;SDS011;7733;51.554;13.590;2023-06-26T02:14:34;5.23;;;4.93;;
15261;SDS011;7733;51.554;13.590;2023-06-26T02:17:00;5.57;;;5.17;;
15261;SDS011;7733;51.554;13.590;2023-06-26T02:19:26;5.67;;;5.27;;
15261;SDS011;7733;51.554;13.590;2023-06-26T02:21:52;5.70;;;5.40;;
15261;SDS011;7733;51.554;13.590;2023-06-26T02:24:21;5.13;;;4.93;;
15261;SDS011;7733;51.554;13.590;2023-06-26T02:26:47;4.70;;;4.50;;
15261;SDS011;7733;51.554;13.590;2023-06-26T02:29:14;5.17;;;4.90;;
15261;SDS011;7733;51.554;13.590;2023-06-26T02:31:40;5.07;;;4.80;;
15261;SDS011;7733;51.554;13.590;2023-06-26T02:34:06;5.40;;;5.10;;
15261;SDS011;7733;51.554;13.590;2023-06-26T02:36:32;5.40;;;5.10;;
15261;SDS011;7733;51.554;13.590;2023-06-26T02:38:58;5.63;;;5.23;;
15261;SDS011;7733;51.554;13.590;2023-06-26T02:41:23;6.17;;;5.77;;
15261;SDS011;7733;51.554;13.590;2023-06-26T02:43:49;5.70;;;5.40;;
15261;SDS011;7733;51.554;13.590;2023-06-26T02:46:15;5.00;;;4.80;;
15261;SDS011;7733;51.554;13.590;2023-06-26T02:48:40;5.20;;;4.90;;
15261;SDS011;7733;51.554;13.590;2023-06-26T02:51:07;4.80;;;4.40;;
15261;SDS011;7733;51.554;13.590;2023-06-26T02:53:33;4.40;;;4.10;;
15261;SDS011;7733;51.554;13.590;2023-06-26T02:55:58;3.87;;;3.63;;
15261;SDS011;7733;51.554;13.590;2023-06-26T02:58:24;4.33;;;3.93;;
15261;SDS011;7733;51.554;13.590;2023-06-26T03:00:50;4.90;;;4.60;;
15261;SDS011;7733;51.554;13.590;2023-06-26T03:03:16;5.10;;;4.80;;
15261;SDS011;7733;51.554;13.590;2023-06-26T03:05:42;5.30;;;5.00;;
15261;SDS011;7733;51.554;13.590;2023-06-26T03:08:08;5.87;;;5.50;;
15261;SDS011;7733;51.554;13.590;2023-06-26T03:10:34;6.40;;;6.00;;
15261;SDS011;7733;51.554;13.590;2023-06-26T03:13:00;5.97;;;5.67;;
15261;SDS011;7733;51.554;13.590;2023-06-26T03:15:25;6.80;;;6.10;;
15261;SDS011;7733;51.554;13.590;2023-06-26T03:17:51;6.03;;;5.73;;
15261;SDS011;7733;51.554;13.590;2023-06-26T03:20:17;6.60;;;6.10;;
15261;SDS011;7733;51.554;13.590;2023-06-26T03:22:42;4.70;;;4.47;;
15261;SDS011;7733;51.554;13.590;2023-06-26T03:25:08;4.37;;;4.07;;
15261;SDS011;7733;51.554;13.590;2023-06-26T03:27:34;4.47;;;4.17;;
15261;SDS011;7733;51.554;13.590;2023-06-26T03:30:00;4.20;;;3.90;;
15261;SDS011;7733;51.554;13.590;2023-06-26T03:32:25;3.70;;;3.60;;
15261;SDS011;7733;51.554;13.590;2023-06-26T03:34:51;4.00;;;3.70;;
15261;SDS011;7733;51.554;13.590;2023-06-26T03:37:18;4.87;;;3.60;;
15261;SDS011;7733;51.554;13.590;2023-06-26T03:39:44;4.30;;;4.03;;
15261;SDS011;7733;51.554;13.590;2023-06-26T03:42:09;4.47;;;4.27;;
15261;SDS011;7733;51.554;13.590;2023-06-26T03:44:35;5.57;;;5.27;;
15261;SDS011;7733;51.554;13.590;2023-06-26T03:47:01;6.03;;;5.63;;
15261;SDS011;7733;51.554;13.590;2023-06-26T03:49:27;7.00;;;6.50;;
15261;SDS011;7733;51.554;13.590;2023-06-26T03:51:52;5.80;;;5.47;;
15261;SDS011;7733;51.554;13.590;2023-06-26T03:54:18;4.77;;;4.53;;
15261;SDS011;7733;51.554;13.590;2023-06-26T03:56:44;4.27;;;3.97;;
15261;SDS011;7733;51.554;13.590;2023-06-26T03:59:10;5.83;;;4.27;;
15261;SDS011;7733;51.554;13.590;2023-06-26T04:01:36;4.90;;;4.50;;
15261;SDS011;7733;51.554;13.590;2023-06-26T04:04:02;5.30;;;4.83;;
15261;SDS011;7733;51.554;13.590;2023-06-26T04:06:28;6.10;;;5.60;;
15261;SDS011;7733;51.554;13.590;2023-06-26T04:08:56;5.67;;;5.30;;
15261;SDS011;7733;51.554;13.590;2023-06-26T04:11:23;6.03;;;5.63;;
15261;SDS011;7733;51.554;13.590;2023-06-26T04:13:49;7.23;;;6.60;;
15261;SDS011;7733;51.554;13.590;2023-06-26T04:16:15;6.70;;;6.30;;
15261;SDS011;7733;51.554;13.590;2023-06-26T04:18:41;6.90;;;6.50;;
15261;SDS011;7733;51.554;13.590;2023-06-26T04:23:36;7.23;;;6.73;;
15261;SDS011;7733;51.554;13.590;2023-06-26T04:26:03;6.17;;;5.70;;
15261;SDS011;7733;51.554;13.590;2023-06-26T04:28:30;7.17;;;6.70;;
15261;SDS011;7733;51.554;13.590;2023-06-26T04:30:58;7.70;;;7.20;;
15261;SDS011;7733;51.554;13.590;2023-06-26T04:33:25;7.73;;;7.23;;
15261;SDS011;7733;51.554;13.590;2023-06-26T04:35:53;7.70;;;6.93;;
15261;SDS011;7733;51.554;13.590;2023-06-26T04:38:19;8.03;;;7.43;;
15261;SDS011;7733;51.554;13.590;2023-06-26T04:40:46;7.73;;;7.23;;
15261;SDS011;7733;51.554;13.590;2023-06-26T04:43:13;7.80;;;7.20;;
15261;SDS011;7733;51.554;13.590;2023-06-26T04:45:39;7.23;;;6.73;;
15261;SDS011;7733;51.554;13.590;2023-06-26T04:48:05;7.57;;;7.07;;
15261;SDS011;7733;51.554;13.590;2023-06-26T04:50:31;7.73;;;7.23;;
15261;SDS011;7733;51.554;13.590;2023-06-26T04:52:58;7.87;;;7.27;;
15261;SDS011;7733;51.554;13.590;2023-06-26T04:55:24;7.67;;;7.27;;
15261;SDS011;7733;51.554;13.590;2023-06-26T04:57:50;7.27;;;6.87;;
15261;SDS011;7733;51.554;13.590;2023-06-26T05:00:16;7.07;;;6.60;;
15261;SDS011;7733;51.554;13.590;2023-06-26T05:02:43;7.23;;;6.63;;
15261;SDS011;7733;51.554;13.590;2023-06-26T05:05:09;10.13;;;7.03;;
15261;SDS011;7733;51.554;13.590;2023-06-26T05:07:35;7.30;;;6.40;;
15261;SDS011;7733;51.554;13.590;2023-06-26T05:10:02;7.03;;;6.47;;
15261;SDS011;7733;51.554;13.590;2023-06-26T05:12:28;7.13;;;6.73;;
15261;SDS011;7733;51.554;13.590;2023-06-26T05:14:53;7.13;;;6.73;;
15261;SDS011;7733;51.554;13.590;2023-06-26T05:17:19;6.63;;;6.13;;
15261;SDS011;7733;51.554;13.590;2023-06-26T05:19:45;6.97;;;6.40;;
15261;SDS011;7733;51.554;13.590;2023-06-26T05:22:12;6.70;;;6.20;;
15261;SDS011;7733;51.554;13.590;2023-06-26T05:24:38;7.03;;;6.30;;
15261;SDS011;7733;51.554;13.590;2023-06-26T05:27:05;6.43;;;5.90;;
15261;SDS011;7733;51.554;13.590;2023-06-26T05:29:32;6.63;;;5.70;;
15261;SDS011;7733;51.554;13.590;2023-06-26T05:31:59;6.90;;;6.40;;
15261;SDS011;7733;51.554;13.590;2023-06-26T05:34:25;6.33;;;5.77;;
15261;SDS011;7733;51.554;13.590;2023-06-26T05:37:00;6.47;;;5.97;;
15261;SDS011;7733;51.554;13.590;2023-06-26T05:39:27;5.93;;;5.53;;
15261;SDS011;7733;51.554;13.590;2023-06-26T05:41:53;5.67;;;5.30;;
15261;SDS011;7733;51.554;13.590;2023-06-26T05:44:19;5.90;;;5.50;;
15261;SDS011;7733;51.554;13.590;2023-06-26T05:46:45;6.20;;;5.80;;
15261;SDS011;7733;51.554;13.590;2023-06-26T05:49:11;6.03;;;5.60;;
15261;SDS011;7733;51.554;13.590;2023-06-26T05:51:37;6.07;;;5.50;;
15261;SDS011;7733;51.554;13.590;2023-06-26T05:54:03;5.77;;;5.37;;
15261;SDS011;7733;51.554;13.590;2023-06-26T05:56:29;5.90;;;5.43;;
15261;SDS011;7733;51.554;13.590;2023-06-26T05:58:55;5.80;;;5.20;;
15261;SDS011;7733;51.554;13.590;2023-06-26T06:01:23;5.00;;;4.70;;
15261;SDS011;7733;51.554;13.590;2023-06-26T06:03:49;7.23;;;4.87;;
15261;SDS011;7733;51.554;13.590;2023-06-26T06:06:15;5.63;;;5.23;;
15261;SDS011;7733;51.554;13.590;2023-06-26T06:08:42;5.63;;;5.23;;
15261;SDS011;7733;51.554;13.590;2023-06-26T06:11:08;5.17;;;4.77;;
15261;SDS011;7733;51.554;13.590;2023-06-26T06:13:33;5.43;;;5.13;;
15261;SDS011;7733;51.554;13.590;2023-06-26T06:15:59;5.27;;;4.97;;
15261;SDS011;7733;51.554;13.590;2023-06-26T06:18:25;4.70;;;4.40;;
15261;SDS011;7733;51.554;13.590;2023-06-26T06:20:51;5.10;;;4.90;;
15261;SDS011;7733;51.554;13.590;2023-06-26T06:23:16;4.90;;;4.50;;
15261;SDS011;7733;51.554;13.590;2023-06-26T06:25:43;5.23;;;4.83;;
15261;SDS011;7733;51.554;13.590;2023-06-26T06:28:09;5.03;;;4.70;;
15261;SDS011;7733;51.554;13.590;2023-06-26T06:30:34;5.00;;;4.50;;
15261;SDS011;7733;51.554;13.590;2023-06-26T06:33:01;4.93;;;4.50;;
15261;SDS011;7733;51.554;13.590;2023-06-26T06:35:27;5.00;;;4.60;;
15261;SDS011;7733;51.554;13.590;2023-06-26T06:37:52;4.63;;;4.40;;
15261;SDS011;7733;51.554;13.590;2023-06-26T06:40:18;4.83;;;4.43;;
15261;SDS011;7733;51.554;13.590;2023-06-26T06:42:44;5.43;;;4.80;;
15261;SDS011;7733;51.554;13.590;2023-06-26T06:45:09;4.80;;;4.47;;
15261;SDS011;7733;51.554;13.590;2023-06-26T06:47:35;5.30;;;4.53;;
15261;SDS011;7733;51.554;13.590;2023-06-26T06:50:01;4.97;;;4.60;;
15261;SDS011;7733;51.554;13.590;2023-06-26T06:52:34;4.33;;;4.10;;
15261;SDS011;7733;51.554;13.590;2023-06-26T06:55:05;4.63;;;4.40;;
15261;SDS011;7733;51.554;13.590;2023-06-26T06:57:36;4.40;;;4.17;;
15261;SDS011;7733;51.554;13.590;2023-06-26T07:02:39;4.60;;;4.33;;
15261;SDS011;7733;51.554;13.590;2023-06-26T07:05:07;5.00;;;4.70;;
15261;SDS011;7733;51.554;13.590;2023-06-26T07:07:34;5.10;;;4.70;;
15261;SDS011;7733;51.554;13.590;2023-06-26T07:10:11;4.40;;;4.20;;
15261;SDS011;7733;51.554;13.590;2023-06-26T07:12:38;4.70;;;4.40;;
15261;SDS011;7733;51.554;13.590;2023-06-26T07:15:04;5.17;;;4.70;;
15261;SDS011;7733;51.554;13.590;2023-06-26T07:17:32;5.07;;;4.23;;
15261;SDS011;7733;51.554;13.590;2023-06-26T07:19:59;5.07;;;4.77;;
15261;SDS011;7733;51.554;13.590;2023-06-26T07:22:26;4.77;;;4.47;;
15261;SDS011;7733;51.554;13.590;2023-06-26T07:24:52;4.70;;;4.40;;
15261;SDS011;7733;51.554;13.590;2023-06-26T07:27:18;4.30;;;4.03;;
15261;SDS011;7733;51.554;13.590;2023-06-26T07:29:45;4.77;;;4.57;;
15261;SDS011;7733;51.554;13.590;2023-06-26T07:32:11;4.70;;;4.33;;
15261;SDS011;7733;51.554;13.590;2023-06-26T07:34:36;4.60;;;4.20;;
15261;SDS011;7733;51.554;13.590;2023-06-26T07:37:02;4.97;;;4.63;;
15261;SDS011;7733;51.554;13.590;2023-06-26T07:39:29;4.40;;;4.20;;
15261;SDS011;7733;51.554;13.590;2023-06-26T07:41:55;4.60;;;4.20;;
15261;SDS011;7733;51.554;13.590;2023-06-26T07:44:24;5.20;;;4.90;;
15261;SDS011;7733;51.554;13.590;2023-06-26T07:46:50;4.93;;;4.53;;
15261;SDS011;7733;51.554;13.590;2023-06-26T07:49:16;4.30;;;3.90;;
15261;SDS011;7733;51.554;13.590;2023-06-26T07:51:41;5.40;;;4.33;;
15261;SDS011;7733;51.554;13.590;2023-06-26T07:54:07;5.40;;;4.50;;
15261;SDS011;7733;51.554;13.590;2023-06-26T07:59:21;4.30;;;4.00;;
15261;SDS011;7733;51.554;13.590;2023-06-26T08:01:50;4.90;;;4.50;;
15261;SDS011;7733;51.554;13.590;2023-06-26T08:04:21;4.80;;;4.50;;
15261;SDS011;7733;51.554;13.590;2023-06-26T08:06:53;4.70;;;4.23;;
15261;SDS011;7733;51.554;13.590;2023-06-26T08:09:22;4.67;;;4.37;;
15261;SDS011;7733;51.554;13.590;2023-06-26T08:11:50;4.60;;;4.20;;
15261;SDS011;7733;51.554;13.590;2023-06-26T08:14:16;4.77;;;4.50;;
15261;SDS011;7733;51.554;13.590;2023-06-26T08:16:43;4.20;;;3.80;;
15261;SDS011;7733;51.554;13.590;2023-06-26T08:19:09;4.60;;;4.30;;
15261;SDS011;7733;51.554;13.590;2023-06-26T08:21:37;4.60;;;4.27;;
15261;SDS011;7733;51.554;13.590;2023-06-26T08:24:02;4.30;;;4.10;;
15261;SDS011;7733;51.554;13.590;2023-06-26T08:26:28;4.57;;;4.20;;
15261;SDS011;7733;51.554;13.590;2023-06-26T08:28:54;4.37;;;4.07;;
15261;SDS011;7733;51.554;13.590;2023-06-26T08:31:20;4.27;;;4.00;;
15261;SDS011;7733;51.554;13.590;2023-06-26T08:33:46;4.00;;;3.90;;
15261;SDS011;7733;51.554;13.590;2023-06-26T08:36:12;4.40;;;4.10;;
15261;SDS011;7733;51.554;13.590;2023-06-26T08:38:38;4.53;;;3.97;;
15261;SDS011;7733;51.554;13.590;2023-06-26T08:41:07;4.17;;;3.97;;
15261;SDS011;7733;51.554;13.590;2023-06-26T08:43:33;4.20;;;3.90;;
15261;SDS011;7733;51.554;13.590;2023-06-26T08:46:00;4.67;;;4.30;;
15261;SDS011;7733;51.554;13.590;2023-06-26T08:48:28;4.37;;;4.07;;
15261;SDS011;7733;51.554;13.590;2023-06-26T08:50:57;4.83;;;3.90;;
15261;SDS011;7733;51.554;13.590;2023-06-26T08:56:08;4.00;;;3.80;;
15261;SDS011;7733;51.554;13.590;2023-06-26T08:58:37;4.20;;;3.80;;
15261;SDS011;7733;51.554;13.590;2023-06-26T09:01:04;3.93;;;3.83;;
15261;SDS011;7733;51.554;13.590;2023-06-26T09:03:31;4.53;;;4.23;;
15261;SDS011;7733;51.554;13.590;2023-06-26T09:05:57;4.33;;;3.97;;
15261;SDS011;7733;51.554;13.590;2023-06-26T09:08:24;4.00;;;3.80;;
15261;SDS011;7733;51.554;13.590;2023-06-26T09:10:49;4.13;;;3.83;;
15261;SDS011;7733;51.554;13.590;2023-06-26T09:13:16;4.13;;;3.57;;
15261;SDS011;7733;51.554;13.590;2023-06-26T09:15:43;4.33;;;3.93;;
15261;SDS011;7733;51.554;13.590;2023-06-26T09:18:11;3.80;;;3.60;;
15261;SDS011;7733;51.554;13.590;2023-06-26T09:20:37;4.47;;;4.07;;
15261;SDS011;7733;51.554;13.590;2023-06-26T09:23:03;3.70;;;3.60;;
15261;SDS011;7733;51.554;13.590;2023-06-26T09:25:30;4.10;;;3.90;;
15261;SDS011;7733;51.554;13.590;2023-06-26T09:27:56;4.17;;;3.97;;
15261;SDS011;7733;51.554;13.590;2023-06-26T09:30:22;3.90;;;3.70;;
15261;SDS011;7733;51.554;13.590;2023-06-26T09:32:49;4.30;;;3.90;;
15261;SDS011;7733;51.554;13.590;2023-06-26T09:35:19;4.50;;;4.10;;
15261;SDS011;7733;51.554;13.590;2023-06-26T09:37:45;4.10;;;3.90;;
15261;SDS011;7733;51.554;13.590;2023-06-26T09:40:11;4.90;;;3.90;;
15261;SDS011;7733;51.554;13.590;2023-06-26T09:42:38;3.80;;;3.70;;
15261;SDS011;7733;51.554;13.590;2023-06-26T09:45:04;3.97;;;3.77;;
15261;SDS011;7733;51.554;13.590;2023-06-26T09:47:31;4.10;;;3.90;;
15261;SDS011;7733;51.554;13.590;2023-06-26T09:49:59;4.20;;;3.87;;
15261;SDS011;7733;51.554;13.590;2023-06-26T09:52:28;5.00;;;3.70;;
15261;SDS011;7733;51.554;13.590;2023-06-26T09:55:15;3.93;;;3.73;;
15261;SDS011;7733;51.554;13.590;2023-06-26T09:57:40;4.03;;;3.83;;
15261;SDS011;7733;51.554;13.590;2023-06-26T10:00:08;4.17;;;3.97;;
15261;SDS011;7733;51.554;13.590;2023-06-26T10:02:35;4.20;;;3.80;;
15261;SDS011;7733;51.554;13.590;2023-06-26T10:05:01;4.30;;;4.00;;
15261;SDS011;7733;51.554;13.590;2023-06-26T10:07:27;4.67;;;4.20;;
15261;SDS011;7733;51.554;13.590;2023-06-26T10:09:53;4.27;;;4.07;;
15261;SDS011;7733;51.554;13.590;2023-06-26T10:12:28;4.27;;;3.87;;
15261;SDS011;7733;51.554;13.590;2023-06-26T10:14:58;4.07;;;3.77;;
15261;SDS011;7733;51.554;13.590;2023-06-26T10:17:28;4.13;;;3.93;;
15261;SDS011;7733;51.554;13.590;2023-06-26T10:20:02;4.00;;;3.70;;
15261;SDS011;7733;51.554;13.590;2023-06-26T10:22:33;3.83;;;3.63;;
15261;SDS011;7733;51.554;13.590;2023-06-26T10:25:06;3.80;;;3.70;;
15261;SDS011;7733;51.554;13.590;2023-06-26T10:27:36;4.47;;;3.90;;
15261;SDS011;7733;51.554;13.590;2023-06-26T10:30:13;3.83;;;3.63;;
15261;SDS011;7733;51.554;13.590;2023-06-26T10:32:45;4.27;;;3.87;;
15261;SDS011;7733;51.554;13.590;2023-06-26T10:35:13;3.77;;;3.47;;
15261;SDS011;7733;51.554;13.590;2023-06-26T10:37:43;3.57;;;3.40;;
15261;SDS011;7733;51.554;13.590;2023-06-26T10:40:17;3.63;;;3.53;;
15261;SDS011;7733;51.554;13.590;2023-06-26T10:42:51;4.10;;;3.77;;
15261;SDS011;7733;51.554;13.590;2023-06-26T10:45:32;3.90;;;3.70;;
15261;SDS011;7733;51.554;13.590;2023-06-26T10:48:00;3.63;;;3.43;;
15261;SDS011;7733;51.554;13.590;2023-06-26T10:50:30;3.60;;;3.40;;
15261;SDS011;7733;51.554;13.590;2023-06-26T10:56:06;4.00;;;3.80;;
15261;SDS011;7733;51.554;13.590;2023-06-26T11:01:22;3.80;;;3.50;;
15261;SDS011;7733;51.554;13.590;2023-06-26T11:03:50;4.07;;;3.87;;
15261;SDS011;7733;51.554;13.590;2023-06-26T11:06:27;3.77;;;3.63;;
15261;SDS011;7733;51.554;13.590;2023-06-26T11:08:54;4.00;;;3.80;;
15261;SDS011;7733;51.554;13.590;2023-06-26T11:14:30;4.20;;;3.90;;
15261;SDS011;7733;51.554;13.590;2023-06-26T11:16:57;3.77;;;3.57;;
15261;SDS011;7733;51.554;13.590;2023-06-26T11:19:25;3.67;;;3.57;;
15261;SDS011;7733;51.554;13.590;2023-06-26T11:21:57;3.93;;;3.63;;
15261;SDS011;7733;51.554;13.590;2023-06-26T11:24:26;3.83;;;3.73;;
15261;SDS011;7733;51.554;13.590;2023-06-26T11:26:54;3.73;;;3.63;;
15261;SDS011;7733;51.554;13.590;2023-06-26T11:29:25;4.00;;;3.70;;
15261;SDS011;7733;51.554;13.590;2023-06-26T11:31:57;4.23;;;4.03;;
15261;SDS011;7733;51.554;13.590;2023-06-26T11:34:26;3.80;;;3.63;;
15261;SDS011;7733;51.554;13.590;2023-06-26T11:36:56;3.50;;;3.40;;
15261;SDS011;7733;51.554;13.590;2023-06-26T11:39:22;3.60;;;3.40;;
15261;SDS011;7733;51.554;13.590;2023-06-26T11:41:48;3.63;;;3.53;;
15261;SDS011;7733;51.554;13.590;2023-06-26T11:44:14;3.73;;;3.63;;
15261;SDS011;7733;51.554;13.590;2023-06-26T11:46:45;3.80;;;3.63;;
15261;SDS011;7733;51.554;13.590;2023-06-26T11:49:10;4.13;;;3.93;;
15261;SDS011;7733;51.554;13.590;2023-06-26T11:51:36;3.83;;;3.63;;
15261;SDS011;7733;51.554;13.590;2023-06-26T11:54:02;3.70;;;3.53;;
15261;SDS011;7733;51.554;13.590;2023-06-26T11:56:29;3.57;;;3.30;;
15261;SDS011;7733;51.554;13.590;2023-06-26T11:59:02;5.30;;;3.87;;
15261;SDS011;7733;51.554;13.590;2023-06-26T12:03:59;4.23;;;3.97;;
15261;SDS011;7733;51.554;13.590;2023-06-26T12:06:32;3.90;;;3.70;;
15261;SDS011;7733;51.554;13.590;2023-06-26T12:09:01;4.13;;;4.03;;
15261;SDS011;7733;51.554;13.590;2023-06-26T12:11:31;4.13;;;3.93;;
15261;SDS011;7733;51.554;13.590;2023-06-26T12:13:59;4.53;;;3.90;;
15261;SDS011;7733;51.554;13.590;2023-06-26T12:16:27;3.87;;;3.67;;
15261;SDS011;7733;51.554;13.590;2023-06-26T12:18:58;4.10;;;3.90;;
15261;SDS011;7733;51.554;13.590;2023-06-26T12:24:05;4.37;;;4.10;;
15261;SDS011;7733;51.554;13.590;2023-06-26T12:26:33;3.90;;;3.80;;
15261;SDS011;7733;51.554;13.590;2023-06-26T12:29:06;3.90;;;3.80;;
15261;SDS011;7733;51.554;13.590;2023-06-26T12:31:48;4.03;;;3.87;;
15261;SDS011;7733;51.554;13.590;2023-06-26T12:34:18;4.10;;;3.97;;
15261;SDS011;7733;51.554;13.590;2023-06-26T12:36:49;4.23;;;4.03;;
15261;SDS011;7733;51.554;13.590;2023-06-26T12:39:17;4.30;;;3.90;;
15261;SDS011;7733;51.554;13.590;2023-06-26T12:41:49;4.30;;;4.13;;
15261;SDS011;7733;51.554;13.590;2023-06-26T12:44:18;4.10;;;3.90;;
15261;SDS011;7733;51.554;13.590;2023-06-26T12:46:54;3.87;;;3.77;;
15261;SDS011;7733;51.554;13.590;2023-06-26T12:52:03;4.30;;;4.10;;
15261;SDS011;7733;51.554;13.590;2023-06-26T12:54:34;5.50;;;4.17;;
15261;SDS011;7733;51.554;13.590;2023-06-26T12:57:02;3.93;;;3.83;;
15261;SDS011;7733;51.554;13.590;2023-06-26T12:59:31;8.23;;;4.40;;
15261;SDS011;7733;51.554;13.590;2023-06-26T13:01:59;3.80;;;3.70;;
15261;SDS011;7733;51.554;13.590;2023-06-26T13:04:25;4.07;;;3.87;;
15261;SDS011;7733;51.554;13.590;2023-06-26T13:06:51;4.10;;;3.83;;
15261;SDS011;7733;51.554;13.590;2023-06-26T13:09:20;3.90;;;3.70;;
15261;SDS011;7733;51.554;13.590;2023-06-26T13:11:47;3.67;;;3.57;;
15261;SDS011;7733;51.554;13.590;2023-06-26T13:14:13;4.97;;;3.80;;
15261;SDS011;7733;51.554;13.590;2023-06-26T13:16:39;3.70;;;3.50;;
15261;SDS011;7733;51.554;13.590;2023-06-26T13:19:05;3.80;;;3.70;;
15261;SDS011;7733;51.554;13.590;2023-06-26T13:21:31;3.57;;;3.47;;
15261;SDS011;7733;51.554;13.590;2023-06-26T13:23:58;3.90;;;3.70;;
15261;SDS011;7733;51.554;13.590;2023-06-26T13:26:24;3.93;;;3.73;;
15261;SDS011;7733;51.554;13.590;2023-06-26T13:28:53;4.00;;;3.60;;
15261;SDS011;7733;51.554;13.590;2023-06-26T13:31:20;3.67;;;3.57;;
15261;SDS011;7733;51.554;13.590;2023-06-26T13:33:46;3.90;;;3.70;;
15261;SDS011;7733;51.554;13.590;2023-06-26T13:36:19;3.53;;;3.43;;
15261;SDS011;7733;51.554;13.590;2023-06-26T13:38:46;3.40;;;3.30;;
15261;SDS011;7733;51.554;13.590;2023-06-26T13:41:13;3.70;;;3.60;;
15261;SDS011;7733;51.554;13.590;2023-06-26T13:43:39;3.30;;;3.20;;
15261;SDS011;7733;51.554;13.590;2023-06-26T13:46:05;3.80;;;3.60;;
15261;SDS011;7733;51.554;13.590;2023-06-26T13:48:30;3.93;;;3.60;;
15261;SDS011;7733;51.554;13.590;2023-06-26T13:50:58;3.50;;;3.40;;
15261;SDS011;7733;51.554;13.590;2023-06-26T13:53:24;3.60;;;3.50;;
15261;SDS011;7733;51.554;13.590;2023-06-26T13:55:49;4.27;;;3.87;;
15261;SDS011;7733;51.554;13.590;2023-06-26T13:58:15;4.33;;;3.53;;
15261;SDS011;7733;51.554;13.590;2023-06-26T14:00:41;3.63;;;3.33;;
15261;SDS011;7733;51.554;13.590;2023-06-26T14:03:09;3.53;;;3.40;;
15261;SDS011;7733;51.554;13.590;2023-06-26T14:05:35;3.70;;;3.50;;
15261;SDS011;7733;51.554;13.590;2023-06-26T14:08:02;5.07;;;3.33;;
15261;SDS011;7733;51.554;13.590;2023-06-26T14:10:30;3.50;;;3.20;;
15261;SDS011;7733;51.554;13.590;2023-06-26T14:12:58;3.73;;;3.43;;
15261;SDS011;7733;51.554;13.590;2023-06-26T14:15:24;11.93;;;3.93;;
15261;SDS011;7733;51.554;13.590;2023-06-26T14:17:50;3.63;;;3.40;;
15261;SDS011;7733;51.554;13.590;2023-06-26T14:20:17;3.63;;;3.40;;
15261;SDS011;7733;51.554;13.590;2023-06-26T14:22:45;3.57;;;3.17;;
15261;SDS011;7733;51.554;13.590;2023-06-26T14:25:11;3.73;;;3.53;;
15261;SDS011;7733;51.554;13.590;2023-06-26T14:27:38;3.87;;;3.60;;
15261;SDS011;7733;51.554;13.590;2023-06-26T14:30:04;4.07;;;3.77;;
15261;SDS011;7733;51.554;13.590;2023-06-26T14:32:31;3.33;;;3.20;;
15261;SDS011;7733;51.554;13.590;2023-06-26T14:34:57;3.63;;;3.43;;
15261;SDS011;7733;51.554;13.590;2023-06-26T14:37:23;3.77;;;3.57;;
15261;SDS011;7733;51.554;13.590;2023-06-26T14:39:50;3.87;;;3.57;;
15261;SDS011;7733;51.554;13.590;2023-06-26T14:42:16;7.73;;;7.33;;
15261;SDS011;7733;51.554;13.590;2023-06-26T14:44:42;4.90;;;4.63;;
15261;SDS011;7733;51.554;13.590;2023-06-26T14:47:08;3.93;;;3.63;;
15261;SDS011;7733;51.554;13.590;2023-06-26T14:49:33;3.47;;;3.27;;
15261;SDS011;7733;51.554;13.590;2023-06-26T14:51:59;3.60;;;3.40;;
15261;SDS011;7733;51.554;13.590;2023-06-26T14:54:25;3.70;;;3.50;;
15261;SDS011;7733;51.554;13.590;2023-06-26T14:56:51;3.30;;;3.20;;
15261;SDS011;7733;51.554;13.590;2023-06-26T14:59:16;3.70;;;3.50;;
15261;SDS011;7733;51.554;13.590;2023-06-26T15:01:42;3.37;;;3.27;;
15261;SDS011;7733;51.554;13.590;2023-06-26T15:04:08;3.43;;;3.33;;
15261;SDS011;7733;51.554;13.590;2023-06-26T15:06:35;3.63;;;3.40;;
15261;SDS011;7733;51.554;13.590;2023-06-26T15:09:00;3.63;;;3.50;;
15261;SDS011;7733;51.554;13.590;2023-06-26T15:11:27;4.50;;;3.53;;
15261;SDS011;7733;51.554;13.590;2023-06-26T15:13:54;3.63;;;3.50;;
15261;SDS011;7733;51.554;13.590;2023-06-26T15:16:21;3.60;;;3.50;;
15261;SDS011;7733;51.554;13.590;2023-06-26T15:18:47;4.47;;;3.43;;
15261;SDS011;7733;51.554;13.590;2023-06-26T15:21:13;3.70;;;3.60;;
15261;SDS011;7733;51.554;13.590;2023-06-26T15:23:38;5.47;;;3.40;;
15261;SDS011;7733;51.554;13.590;2023-06-26T15:26:04;4.27;;;3.60;;
15261;SDS011;7733;51.554;13.590;2023-06-26T15:28:30;15.63;;;4.47;;